createdAt,value
2019-01-05T00:01:01.608Z,34.27
2019-01-05T00:03:42.688Z,34.87
2019-01-05T00:06:34.263Z,32.50
2019-01-05T00:09:25.967Z,33.03
2019-01-05T00:12:16.230Z,30.17
2019-01-05T00:15:13.935Z,29.03
2019-01-05T00:18:21.050Z,30.80
2019-01-05T00:21:12.028Z,26.97
2019-01-05T00:24:13.357Z,28.87
2019-01-05T00:27:01.773Z,31.83
2019-01-05T00:29:56.565Z,29.10
2019-01-05T00:32:49.344Z,29.83
2019-01-05T00:36:00.872Z,31.50
2019-01-05T00:38:51.392Z,32.70
2019-01-05T00:41:43.002Z,31.23
2019-01-05T00:44:33.756Z,31.37
2019-01-05T00:47:34.372Z,30.57
2019-01-05T00:50:28.886Z,29.80
2019-01-05T00:53:20.569Z,29.30
2019-01-05T00:56:33.361Z,30.73
2019-01-05T00:59:46.177Z,31.07
2019-01-05T01:02:37.751Z,27.27
2019-01-05T01:05:29.323Z,25.23
2019-01-05T01:08:20.918Z,28.27
2019-01-05T01:11:12.478Z,28.20
2019-01-05T01:14:04.038Z,25.23
2019-01-05T01:16:55.588Z,28.50
2019-01-05T01:19:47.263Z,29.17
2019-01-05T01:22:38.945Z,29.50
2019-01-05T01:25:30.602Z,27.53
2019-01-05T01:28:43.426Z,25.63
2019-01-05T01:31:35.075Z,27.77
2019-01-05T01:34:26.807Z,27.87
2019-01-05T01:37:18.402Z,25.57
2019-01-05T01:40:08.329Z,29.00
2019-01-05T01:43:02.600Z,26.37
2019-01-05T01:46:03.198Z,27.37
2019-01-05T01:48:46.404Z,25.53
2019-01-05T01:51:38.004Z,27.27
2019-01-05T01:54:48.039Z,27.57
2019-01-05T01:57:38.565Z,26.83
2019-01-05T02:00:21.441Z,28.60
2019-01-05T02:03:09.956Z,26.87
2019-01-05T02:06:03.679Z,24.07
2019-01-05T02:09:00.686Z,23.53
2019-01-05T02:11:53.789Z,22.40
2019-01-05T02:14:52.248Z,23.70
2019-01-05T02:18:02.696Z,25.43
2019-01-05T02:21:08.695Z,24.20
2019-01-05T02:24:31.907Z,24.33
2019-01-05T02:27:47.881Z,21.33
2019-01-05T02:31:24.459Z,24.23
2019-01-05T02:35:10.059Z,23.73
2019-01-05T02:38:50.502Z,23.63
2019-01-05T02:42:19.797Z,24.60
2019-01-05T02:45:53.310Z,23.77
2019-01-05T02:49:40.208Z,24.97
2019-01-05T02:52:58.881Z,25.03
2019-01-05T02:56:38.325Z,26.47
2019-01-05T03:00:16.681Z,24.07
2019-01-05T03:04:06.660Z,23.73
2019-01-05T03:07:40.656Z,23.80
2019-01-05T03:11:44.014Z,27.90
2019-01-05T03:15:10.672Z,27.00
2019-01-05T03:18:44.567Z,28.67
2019-01-05T03:22:29.062Z,27.13
2019-01-05T03:25:39.853Z,25.40
2019-01-05T03:29:13.849Z,27.63
2019-01-05T03:32:51.713Z,25.07
2019-01-05T03:36:07.831Z,26.30
2019-01-05T03:39:19.880Z,27.80
2019-01-05T03:43:13.168Z,26.60
2019-01-05T03:46:33.837Z,30.43
2019-01-05T03:50:20.483Z,27.87
2019-01-05T03:53:47.332Z,28.93
2019-01-05T03:56:57.277Z,27.97
2019-01-05T04:00:38.622Z,24.80
2019-01-05T04:04:32.524Z,26.43
2019-01-05T04:08:26.435Z,24.37
2019-01-05T04:12:18.153Z,26.43
2019-01-05T04:15:50.228Z,22.63
2019-01-05T04:19:55.631Z,27.07
2019-01-05T04:23:22.527Z,24.90
2019-01-05T04:26:49.685Z,26.23
2019-01-05T04:30:24.082Z,26.80
2019-01-05T04:33:54.130Z,26.67
2019-01-05T04:37:17.817Z,26.87
2019-01-05T04:40:55.907Z,23.97
2019-01-05T04:44:44.378Z,23.93
2019-01-05T04:48:02.552Z,23.10
2019-01-05T04:51:44.112Z,22.13
2019-01-05T04:55:24.282Z,23.50
2019-01-05T04:58:54.778Z,25.70
2019-01-05T05:02:16.384Z,27.80
2019-01-05T05:05:36.599Z,26.20
2019-01-05T05:09:07.015Z,28.30
2019-01-05T05:12:33.289Z,25.33
2019-01-05T05:16:03.770Z,27.53
2019-01-05T05:19:27.494Z,26.67
2019-01-05T05:22:57.939Z,20.10
2019-01-05T05:26:18.741Z,22.23
2019-01-05T05:29:49.149Z,21.93
2019-01-05T05:33:16.062Z,21.47
2019-01-05T05:36:36.958Z,18.10
2019-01-05T05:40:17.964Z,19.40
2019-01-05T05:43:51.311Z,19.03
2019-01-05T05:47:13.768Z,18.67
2019-01-05T05:50:34.137Z,18.10
2019-01-05T05:54:04.575Z,18.67
2019-01-05T05:57:23.961Z,20.37
2019-01-05T06:00:54.407Z,15.93
2019-01-05T06:04:21.223Z,15.00
2019-01-05T06:07:51.677Z,16.37
2019-01-05T06:11:13.307Z,17.87
2019-01-05T06:14:30.668Z,15.60
2019-01-05T06:18:05.253Z,17.07
2019-01-05T06:21:35.720Z,16.93
2019-01-05T06:25:06.173Z,17.17
2019-01-05T06:28:24.685Z,18.03
2019-01-05T06:31:55.124Z,18.13
2019-01-05T06:35:16.758Z,19.83
2019-01-05T06:38:50.377Z,18.30
2019-01-05T06:42:20.841Z,17.73
2019-01-05T06:45:44.474Z,16.97
2019-01-05T06:49:14.898Z,17.43
2019-01-05T06:52:45.317Z,15.27
2019-01-05T06:56:05.968Z,17.40
2019-01-05T06:59:36.386Z,16.57
2019-01-05T07:02:53.098Z,16.87
2019-01-05T07:06:23.534Z,15.70
2019-01-05T07:09:49.005Z,17.07
2019-01-05T07:13:19.447Z,15.17
2019-01-05T07:16:49.953Z,13.77
2019-01-05T07:23:49.297Z,16.60
2019-01-05T07:27:20.189Z,14.40
2019-01-05T07:30:53.387Z,13.30
2019-01-05T07:34:23.838Z,13.07
2019-01-05T07:37:54.340Z,13.87
2019-01-05T07:41:24.802Z,13.47
2019-01-05T07:44:55.262Z,12.37
2019-01-05T07:48:25.721Z,11.90
2019-01-05T07:51:56.137Z,10.90
2019-01-05T07:55:26.635Z,9.30
2019-01-05T07:58:27.884Z,11.23
2019-01-05T08:01:58.357Z,8.90
2019-01-05T08:05:28.783Z,9.20
2019-01-05T08:11:11.770Z,10.30
2019-01-05T08:14:31.554Z,9.33
2019-01-05T08:18:01.980Z,8.13
2019-01-05T08:21:35.484Z,7.63
2019-01-05T08:25:05.934Z,7.20
2019-01-05T08:28:28.885Z,8.03
2019-01-05T08:31:59.328Z,8.57
2019-01-05T08:35:29.787Z,8.33
2019-01-05T08:39:12.022Z,13.57
2019-01-05T08:43:05.547Z,12.47
2019-01-05T08:46:49.011Z,14.97
2019-01-05T08:50:30.265Z,13.60
2019-01-05T08:54:12.451Z,16.50
2019-01-05T08:57:57.990Z,14.67
2019-01-05T09:01:39.463Z,13.00
2019-01-05T09:05:18.499Z,10.10
2019-01-05T09:08:45.360Z,9.17
2019-01-05T09:12:30.864Z,10.80
2019-01-05T09:16:28.279Z,9.30
2019-01-05T09:20:19.511Z,9.67
2019-01-05T09:23:49.840Z,9.93
2019-01-05T09:27:49.208Z,8.83
2019-01-05T09:31:49.020Z,8.80
2019-01-05T09:35:32.696Z,11.63
2019-01-05T09:39:16.813Z,11.57
2019-01-05T09:43:08.017Z,11.17
2019-01-05T09:46:39.332Z,9.93
2019-01-05T09:50:13.591Z,10.17
2019-01-05T09:53:45.090Z,10.30
2019-01-05T09:57:31.395Z,11.67
2019-01-05T10:01:47.412Z,11.13
2019-01-05T10:05:16.636Z,10.87
2019-01-05T10:08:52.199Z,12.37
2019-01-05T10:12:23.294Z,10.50
2019-01-05T10:16:00.311Z,11.00
2019-01-05T10:19:26.601Z,9.63
2019-01-05T10:23:06.581Z,11.17
2019-01-05T10:26:43.456Z,10.33
2019-01-05T10:30:38.070Z,9.57
2019-01-05T10:34:03.011Z,10.03
2019-01-05T10:37:21.096Z,10.40
2019-01-05T10:40:53.902Z,10.53
2019-01-05T10:44:23.503Z,8.97
2019-01-05T10:47:48.923Z,9.67
2019-01-05T10:51:22.577Z,9.23
2019-01-05T10:54:57.640Z,11.87
2019-01-05T10:58:52.054Z,13.37
2019-01-05T11:02:45.351Z,20.90
2019-01-05T11:06:38.888Z,17.27
2019-01-05T11:10:39.835Z,15.53
2019-01-05T11:14:31.206Z,16.20
2019-01-05T11:18:09.531Z,15.70
2019-01-05T11:21:24.183Z,17.57
2019-01-05T11:25:15.357Z,24.77
2019-01-05T11:29:04.915Z,18.17
2019-01-05T11:32:55.321Z,18.90
2019-01-05T11:36:24.292Z,13.80
2019-01-05T11:39:58.840Z,13.30
2019-01-05T11:43:20.448Z,11.67
2019-01-05T11:46:33.420Z,9.73
2019-01-05T11:50:01.340Z,12.60
2019-01-05T11:53:44.679Z,16.00
2019-01-05T11:57:24.511Z,17.37
2019-01-05T12:01:12.116Z,14.53
2019-01-05T12:05:02.966Z,14.77
2019-01-05T12:08:33.651Z,12.57
2019-01-05T12:12:08.930Z,18.90
2019-01-05T12:16:02.420Z,13.43
2019-01-05T12:19:42.026Z,11.40
2019-01-05T12:23:09.454Z,11.87
2019-01-05T12:27:02.611Z,10.90
2019-01-05T12:30:38.077Z,10.77
2019-01-05T12:34:09.012Z,13.83
2019-01-05T12:38:01.955Z,11.20
2019-01-05T12:41:29.952Z,12.73
2019-01-05T12:44:42.543Z,11.23
2019-01-05T12:48:16.769Z,12.30
2019-01-05T12:51:38.870Z,14.30
2019-01-05T12:55:20.676Z,10.93
2019-01-05T12:58:38.169Z,9.30
2019-01-05T13:01:58.697Z,10.23
2019-01-05T13:05:18.466Z,11.50
2019-01-05T13:08:47.328Z,11.30
2019-01-05T13:12:08.693Z,12.80
2019-01-05T13:15:59.305Z,11.27
2019-01-05T13:19:43.075Z,11.23
2019-01-05T13:23:21.477Z,9.63
2019-01-05T13:26:55.873Z,12.10
2019-01-05T13:30:49.381Z,14.50
2019-01-05T13:34:24.147Z,13.60
2019-01-05T13:38:10.418Z,12.60
2019-01-05T13:41:38.357Z,14.07
2019-01-05T13:45:10.790Z,15.13
2019-01-05T13:49:00.343Z,16.70
2019-01-05T13:52:45.432Z,20.23
2019-01-05T13:55:52.061Z,24.30
2019-01-05T13:58:42.827Z,19.50
2019-01-05T14:01:33.442Z,15.43
2019-01-05T14:04:34.388Z,12.87
2019-01-05T14:07:24.591Z,12.47
2019-01-05T14:10:19.292Z,11.93
2019-01-05T14:13:11.834Z,13.77
2019-01-05T14:16:03.421Z,12.13
2019-01-05T14:18:53.673Z,11.93
2019-01-05T14:21:57.671Z,12.73
2019-01-05T14:24:58.138Z,14.30
2019-01-05T14:27:48.355Z,12.17
2019-01-05T14:30:46.151Z,13.70
2019-01-05T14:33:49.791Z,11.47
2019-01-05T14:36:36.559Z,15.33
2019-01-05T14:39:46.595Z,13.20
2019-01-05T14:42:56.171Z,13.67
2019-01-05T14:45:46.559Z,16.40
2019-01-05T14:48:36.408Z,16.77
2019-01-05T14:51:26.628Z,19.77
2019-01-05T14:54:16.945Z,15.57
2019-01-05T14:57:17.692Z,16.00
2019-01-05T15:00:18.454Z,14.33
2019-01-05T15:03:28.012Z,12.73
2019-01-05T15:06:18.416Z,13.00
2019-01-05T15:09:22.487Z,18.23
2019-01-05T15:12:13.732Z,15.73
2019-01-05T15:15:03.944Z,17.30
2019-01-05T15:18:01.697Z,13.30
2019-01-05T15:21:00.725Z,13.53
2019-01-05T15:24:01.305Z,13.23
2019-01-05T15:26:52.934Z,16.00
2019-01-05T15:29:43.448Z,15.20
2019-01-05T15:32:35.087Z,18.27
2019-01-05T15:35:25.228Z,15.60
2019-01-05T15:38:16.850Z,16.10
2019-01-05T15:41:08.454Z,18.83
2019-01-05T15:44:06.836Z,24.03
2019-01-05T15:47:13.950Z,19.77
2019-01-05T15:50:20.939Z,30.03
2019-01-05T15:53:18.619Z,21.70
2019-01-05T15:56:10.265Z,17.30
2019-01-05T15:59:00.924Z,23.27
2019-01-05T16:01:43.463Z,26.53
2019-01-05T16:04:37.307Z,25.27
2019-01-05T16:07:28.881Z,18.13
2019-01-05T16:10:23.553Z,20.40
2019-01-05T16:13:13.792Z,16.90
2019-01-05T16:16:11.454Z,20.63
2019-01-05T16:19:15.262Z,22.13
2019-01-05T16:22:06.915Z,21.20
2019-01-05T16:24:57.507Z,20.00
2019-01-05T16:27:39.955Z,15.57
2019-01-05T16:30:30.373Z,23.90
2019-01-05T16:33:20.974Z,18.77
2019-01-05T16:36:11.452Z,18.10
2019-01-05T16:39:01.935Z,19.83
2019-01-05T16:41:56.609Z,21.50
2019-01-05T16:44:54.159Z,17.57
2019-01-05T16:47:44.646Z,18.17
2019-01-05T16:50:35.203Z,18.03
2019-01-05T16:53:25.007Z,17.63
2019-01-05T16:56:16.650Z,16.60
2019-01-05T16:59:18.426Z,17.60
2019-01-05T17:02:15.821Z,16.97
2019-01-05T17:05:13.534Z,18.87
2019-01-05T17:08:10.967Z,19.53
2019-01-05T17:11:08.681Z,19.07
2019-01-05T17:14:03.237Z,16.10
2019-01-05T17:17:05.629Z,16.27
2019-01-05T17:19:55.911Z,16.13
2019-01-05T17:22:46.403Z,15.23
2019-01-05T17:25:36.904Z,15.57
2019-01-05T17:28:46.365Z,15.20
2019-01-05T17:31:36.653Z,17.70
2019-01-05T17:34:31.028Z,18.43
2019-01-05T17:37:21.308Z,18.50
2019-01-05T17:40:15.998Z,26.80
2019-01-05T17:43:09.377Z,22.33
2019-01-05T17:46:01.993Z,24.97
2019-01-05T17:48:56.812Z,25.57
2019-01-05T17:51:48.399Z,29.03
2019-01-05T17:54:43.200Z,28.17
2019-01-05T17:57:33.504Z,23.90
2019-01-05T18:00:28.450Z,24.47
2019-01-05T18:03:22.954Z,30.53
2019-01-05T18:06:11.859Z,43.00
2019-01-05T18:09:03.479Z,37.50
2019-01-05T18:12:07.284Z,44.67
2019-01-05T18:14:57.639Z,49.33
2019-01-05T18:17:48.242Z,37.40
2019-01-05T18:20:49.224Z,34.03
2019-01-05T18:23:36.972Z,71.53
2019-01-05T18:26:43.738Z,28.80
2019-01-05T18:29:41.326Z,30.70
2019-01-05T18:32:38.737Z,22.23
2019-01-05T18:35:42.460Z,24.63
2019-01-05T18:38:23.604Z,22.63
2019-01-05T18:41:18.518Z,24.53
2019-01-05T18:44:07.231Z,24.93
2019-01-05T18:47:14.257Z,21.43
2019-01-05T18:50:21.113Z,23.47
2019-01-05T18:53:24.888Z,24.93
2019-01-05T18:56:19.342Z,21.73
2019-01-05T18:59:16.992Z,23.47
2019-01-05T19:02:17.642Z,22.83
2019-01-05T19:05:05.481Z,27.40
2019-01-05T19:08:07.757Z,30.60
2019-01-05T19:11:02.203Z,33.30
2019-01-05T19:13:51.931Z,22.03
2019-01-05T19:17:01.963Z,19.80
2019-01-05T19:20:11.762Z,19.27
2019-01-05T19:23:06.424Z,17.93
2019-01-05T19:25:58.059Z,18.37
2019-01-05T19:28:48.216Z,21.87
2019-01-05T19:31:49.098Z,16.13
2019-01-05T19:34:39.330Z,19.63
2019-01-05T19:37:29.462Z,23.93
2019-01-05T19:40:20.019Z,24.70
2019-01-05T19:43:20.887Z,27.10
2019-01-05T19:46:24.587Z,22.77
2019-01-05T19:49:19.043Z,21.50
2019-01-05T19:52:19.513Z,22.10
2019-01-05T19:55:26.316Z,21.27
2019-01-05T19:58:33.259Z,21.47
2019-01-05T20:01:32.437Z,27.93
2019-01-05T20:04:39.501Z,22.33
2019-01-05T20:07:31.186Z,21.67
2019-01-05T20:10:26.526Z,23.03
2019-01-05T20:13:23.986Z,26.67
2019-01-05T20:16:22.896Z,31.70
2019-01-05T20:19:23.546Z,26.37
2019-01-05T20:22:06.610Z,24.07
2019-01-05T20:25:04.268Z,26.60
2019-01-05T20:27:54.477Z,21.20
2019-01-05T20:31:01.649Z,27.43
2019-01-05T20:33:56.313Z,26.90
2019-01-05T20:36:59.953Z,25.07
2019-01-05T20:39:43.890Z,20.30
2019-01-05T20:42:34.424Z,19.17
2019-01-05T20:45:26.054Z,23.40
2019-01-05T20:48:17.772Z,20.70
2019-01-05T20:51:12.257Z,20.00
2019-01-05T20:54:02.646Z,24.80
2019-01-05T20:56:53.389Z,21.33
2019-01-05T20:59:54.320Z,19.50
2019-01-05T21:03:01.061Z,15.23
2019-01-05T21:05:51.373Z,17.63
2019-01-05T21:08:55.199Z,15.90
2019-01-05T21:12:01.976Z,15.47
2019-01-05T21:14:52.482Z,15.90
2019-01-05T21:17:58.058Z,19.43
2019-01-05T21:20:55.292Z,17.67
2019-01-05T21:23:47.009Z,16.30
2019-01-05T21:26:40.630Z,16.30
2019-01-05T21:29:33.169Z,14.90
2019-01-05T21:32:27.774Z,16.53
2019-01-05T21:35:22.191Z,16.37
2019-01-05T21:38:12.733Z,16.03
2019-01-05T21:41:22.837Z,15.53
2019-01-05T21:44:13.070Z,15.23
2019-01-05T21:47:16.987Z,16.83
2019-01-05T21:50:07.300Z,16.00
2019-01-05T21:53:05.041Z,15.33
2019-01-05T21:56:02.447Z,15.77
2019-01-05T21:59:09.462Z,17.80
2019-01-05T22:01:59.909Z,14.33
2019-01-05T22:04:50.644Z,15.17
2019-01-05T22:07:35.688Z,15.70
2019-01-05T22:10:30.783Z,17.60
2019-01-05T22:13:40.841Z,18.13
2019-01-05T22:16:41.675Z,18.07
2019-01-05T22:19:33.309Z,16.13
2019-01-05T22:22:23.502Z,13.83
2019-01-05T22:25:18.242Z,12.60
2019-01-05T22:28:09.826Z,13.67
2019-01-05T22:31:00.028Z,24.73
2019-01-05T22:33:54.697Z,21.97
2019-01-05T22:36:42.749Z,20.60
2019-01-05T22:39:34.345Z,17.27
2019-01-05T22:42:32.074Z,15.40
2019-01-05T22:45:22.660Z,12.23
2019-01-05T22:48:13.162Z,15.27
2019-01-05T22:51:03.577Z,19.83
2019-01-05T22:53:58.164Z,14.43
2019-01-05T22:56:49.821Z,14.97
2019-01-05T22:59:59.566Z,14.73
2019-01-05T23:02:49.882Z,11.57
2019-01-05T23:05:53.433Z,12.73
2019-01-05T23:08:45.050Z,12.47
2019-01-05T23:11:45.820Z,11.33
2019-01-05T23:14:43.373Z,17.97
2019-01-05T23:17:35.037Z,11.93
2019-01-05T23:20:25.521Z,13.80
2019-01-05T23:23:16.179Z,11.83
2019-01-05T23:26:06.161Z,10.17
2019-01-05T23:29:04.044Z,11.20
2019-01-05T23:31:54.302Z,9.23
2019-01-05T23:34:44.881Z,10.40
2019-01-05T23:37:42.778Z,9.60
2019-01-05T23:40:33.056Z,9.13
2019-01-05T23:43:23.494Z,9.53
2019-01-05T23:46:20.924Z,11.03
2019-01-05T23:49:08.198Z,11.93
2019-01-05T23:51:58.575Z,9.90
2019-01-05T23:54:56.239Z,10.53
2019-01-05T23:58:02.992Z,7.53
